Overseas Long Beach — WAAT — position and weather

sailwx.info

Track history (hours):
 
Tides and Currents Weather Stations Pressure Air Temp Water Temp Dewpoint Dewpoint Depression Visibility Wind Speed Wind Dir Waves Ship Positions

Overseas Long Beach

Owner: ASC Leasing II, Inc., Philadelphia, PA. More information available from US FCC via Universal Licensing System and Coast Guard Vessel Documentation Center.

Last reported at 2015-Apr-26 09:33 UTC. Time now 2015-Apr-26 09:43 UTC.
Position N 24°33' W 080°53'.

Length 181 m; draft 7.7 m.

Type: Tanker. MMSI: 367703000.

Date/timePositionNaut miles runAvg speedWind from/ knotsBaromVisibWave heightAir tempDewpointWater temp
2015-Apr-26 09:33N 24°33' W 080°53'1414.0
2015-Apr-26 08:33N 24°40' W 080°40'1414.0
2015-Apr-26 07:33N 24°49' W 080°28'1313.5
2015-Apr-26 06:33N 24°57' W 080°16'1313.2
2015-Apr-26 05:34N 25°08' W 080°08'1312.6
2015-Apr-26 04:33N 25°20' W 080°02'1211.7
2015-Apr-26 03:29N 25°32' W 080°00'1111.5
2015-Apr-26 02:33N 25°43' W 079°60'1111.1
2015-Apr-26 01:33N 25°54' W 079°59'1110.8
2015-Apr-26 00:33N 26°05' W 079°59'1111.2
2015-Apr-25 23:33N 26°16' W 079°59'1211.6
2015-Apr-25 22:33N 26°28' W 079°58'1211.5
2015-Apr-25 21:33N 26°39' W 079°58'1211.6
2015-Apr-25 20:33N 26°51' W 079°57'1111.2
2015-Apr-25 19:33N 27°02' W 079°57'  
2015-Apr-22 17:33N 26°30' W 079°42'1615.9
2015-Apr-22 16:33N 26°14' W 079°43'1615.7
2015-Apr-22 15:34N 25°59' W 079°47'1715.6
2015-Apr-22 14:30N 25°43' W 079°52'1615.8
2015-Apr-22 13:30N 25°28' W 079°56'  
Track history (hours):
 
Tides and Currents Weather Stations Pressure Air Temp Water Temp Dewpoint Dewpoint Depression Visibility Wind Speed Wind Dir Waves Ship Positions

Overseas Long Beach

Owner: ASC Leasing II, Inc., Philadelphia, PA. More information available from US FCC via Universal Licensing System and Coast Guard Vessel Documentation Center.

Last reported at 2015-Apr-26 09:33 UTC. Time now 2015-Apr-26 09:43 UTC.
Position N 24°33' W 080°53'.

Length 181 m; draft 7.7 m.

Type: Tanker. MMSI: 367703000.

Date/timePositionNaut miles runAvg speedWind from/ knotsBaromVisibWave heightAir tempDewpointWater temp
2015-Apr-26 09:33N 24°33' W 080°53'1414.0
2015-Apr-26 08:33N 24°40' W 080°40'1414.0
2015-Apr-26 07:33N 24°49' W 080°28'1313.5
2015-Apr-26 06:33N 24°57' W 080°16'1313.2
2015-Apr-26 05:34N 25°08' W 080°08'1312.6
2015-Apr-26 04:33N 25°20' W 080°02'1211.7
2015-Apr-26 03:29N 25°32' W 080°00'1111.5
2015-Apr-26 02:33N 25°43' W 079°60'1111.1
2015-Apr-26 01:33N 25°54' W 079°59'1110.8
2015-Apr-26 00:33N 26°05' W 079°59'1111.2
2015-Apr-25 23:33N 26°16' W 079°59'1211.6
2015-Apr-25 22:33N 26°28' W 079°58'1211.5
2015-Apr-25 21:33N 26°39' W 079°58'1211.6
2015-Apr-25 20:33N 26°51' W 079°57'1111.2
2015-Apr-25 19:33N 27°02' W 079°57'  
2015-Apr-22 17:33N 26°30' W 079°42'1615.9
2015-Apr-22 16:33N 26°14' W 079°43'1615.7
2015-Apr-22 15:34N 25°59' W 079°47'1715.6
2015-Apr-22 14:30N 25°43' W 079°52'1615.8
2015-Apr-22 13:30N 25°28' W 079°56'  

Dump ship's entire track history